Главная страница
METAR-TAF:

METAR-TAF

Аэропорты :

Брённёйсунн, Норвегия

широта: 65-28N, долгота: 012-13E, высота над уровнем моря: 0 м

Текущие метеонаблюдения

Эта сводка был подготовлена 21 минут назад, в 19:20 UTC
Ветер 12 Узел от северный
Температура 15°C
Влажность 72%
Давление 1010 hPa
Видимость 10 км и более
Нет облачности ниже 1500 м, и нет кучево-дождевой облачности

METAR: ENBN 131920Z 35012KT CAVOK 15/10 Q1010

Время: 21:41 (19:41 UTC)

Прогноз

Эта сводка был подготовлена 2 часа и 41 минут назад, в 17:00 UTC
Прогноз действительный с 13-го 18 UTC до 14-го 03 UTC
Ветер 10 Узел от северный
Видимость 10 км и более
небольшая облачность на высоте 4000 фута

TAF: ENBN 131700Z 1318/1403 36010KT 9999 FEW040

Метеонаблюдения и прогнозы для более 4000 аэропортов (сводки METAR и TAF).

Имеющиеся станции представлены на карте желтыми и красными точками.

Чтобы увидеть название станции, наведите на нее мышь.

Затем щелкните, чтобы увидеть метеонаблюдения и метеопрогнозы.

Управление картой: чтобы увеличить масштаб, щелкните зеленые кнопки с черным крестиком; чтобы уменьшить масштаб, щелкните зеленую кнопку с тире; для просмотра соседних карт щелкайте зеленые стрелки.


METAR-TAF: